Time;durP1;ratioP1;P1;durP2;ratioP2;P2;SDS_P1;SDS_P2;PMS_P1;PMS_P2;Temp;Humidity;BMP_temperature;BMP_pressure;BME280_temperature;BME280_humidity;BME280_pressure;Samples;Min_cycle;Max_cycle;Signal;HPM_P1;HPM_P2
2023/09/22 00:01:57;;;;;;;2.88;1.30;;;;;;;17.82;100.00;98933.47;5193753;28;20038;-72
2023/09/22 00:04:27;;;;;;;4.65;1.48;;;;;;;17.83;100.00;98936.94;5191606;28;20048;-71
2023/09/22 00:06:58;;;;;;;2.80;1.40;;;;;;;17.79;100.00;98943.50;5193768;28;20542;-72
2023/09/22 00:09:28;;;;;;;3.38;1.50;;;;;;;17.75;100.00;98945.56;5192500;28;20022;-72
2023/09/22 00:11:59;;;;;;;5.82;1.00;;;;;;;17.63;100.00;98932.63;5191681;28;20109;-72
2023/09/22 00:14:31;;;;;;;2.88;0.93;;;;;;;17.61;100.00;98919.56;5191876;28;20037;-72
2023/09/22 00:17:02;;;;;;;4.65;1.10;;;;;;;17.65;100.00;98922.75;5183068;28;20093;-72
2023/09/22 00:19:32;;;;;;;2.63;1.00;;;;;;;17.63;100.00;98940.56;5192052;28;20419;-72
2023/09/22 00:22:03;;;;;;;1.90;0.80;;;;;;;17.52;100.00;98944.16;5198057;28;20028;-72
2023/09/22 00:24:33;;;;;;;2.40;0.80;;;;;;;17.51;100.00;98933.72;5192446;28;20298;-72
2023/09/22 00:27:03;;;;;;;1.23;0.77;;;;;;;17.55;100.00;98940.41;5170545;28;20017;-72
2023/09/22 00:29:34;;;;;;;2.83;0.90;;;;;;;17.54;100.00;98954.59;5175753;28;20249;-72
2023/09/22 00:32:04;;;;;;;1.20;0.70;;;;;;;17.54;100.00;98954.59;5194435;28;20017;-72
2023/09/22 00:34:34;;;;;;;3.60;0.90;;;;;;;17.41;100.00;98951.38;5186397;28;20029;-72
2023/09/22 00:37:05;;;;;;;0.85;0.70;;;;;;;17.33;100.00;98954.66;5195295;28;20604;-72
2023/09/22 00:39:35;;;;;;;2.83;0.93;;;;;;;17.29;100.00;98961.19;5196450;28;20035;-72
2023/09/22 00:44:36;;;;;;;1.23;0.70;;;;;;;17.27;100.00;98959.63;5262418;22;20074;-72
2023/09/22 00:47:13;;;;;;;2.70;1.10;;;;;;;17.26;100.00;98955.31;5240154;28;20026;-72
2023/09/22 00:49:45;;;;;;;1.63;0.73;;;;;;;17.32;100.00;98970.66;5240748;28;20028;-72
2023/09/22 00:52:18;;;;;;;2.25;0.98;;;;;;;17.27;100.00;98972.84;5243337;28;20032;-72
2023/09/22 00:54:49;;;;;;;1.45;1.00;;;;;;;17.30;100.00;98983.97;5252147;28;20111;-72
2023/09/22 00:57:20;;;;;;;1.48;0.65;;;;;;;17.30;100.00;98985.78;5252545;28;20409;-72
2023/09/22 00:59:51;;;;;;;1.33;0.70;;;;;;;17.23;100.00;98987.28;5251148;28;20125;-72
2023/09/22 01:02:22;;;;;;;1.42;0.80;;;;;;;17.12;100.00;98971.56;5256839;28;20028;-72
2023/09/22 01:04:52;;;;;;;11.30;1.60;;;;;;;17.07;100.00;98971.13;5256050;28;20028;-72
2023/09/22 01:07:23;;;;;;;1.80;0.70;;;;;;;17.02;100.00;98986.53;5256583;28;20485;-72
2023/09/22 01:09:53;;;;;;;1.23;0.65;;;;;;;17.04;100.00;98988.06;5250425;28;20052;-72
2023/09/22 01:12:24;;;;;;;1.67;0.80;;;;;;;16.97;100.00;98983.47;5252515;28;20452;-72
2023/09/22 01:14:54;;;;;;;1.25;0.60;;;;;;;16.87;100.00;98991.34;5253320;28;20024;-72
2023/09/22 01:17:24;;;;;;;1.17;0.55;;;;;;;16.83;100.00;98999.66;5249053;28;20486;-72
2023/09/22 01:19:54;;;;;;;1.00;0.60;;;;;;;16.86;100.00;98992.31;5250656;28;20048;-72
2023/09/22 01:22:25;;;;;;;2.80;0.52;;;;;;;16.83;100.00;98986.44;5249715;28;20032;-72
2023/09/22 01:24:55;;;;;;;1.90;0.57;;;;;;;16.81;100.00;98996.31;5256124;28;20392;-72
2023/09/22 01:27:26;;;;;;;1.30;0.63;;;;;;;16.80;100.00;99000.72;5256080;28;20477;-72
2023/09/22 01:29:56;;;;;;;2.92;0.63;;;;;;;16.80;100.00;99005.19;5254925;28;20118;-72
2023/09/22 01:32:26;;;;;;;0.90;0.60;;;;;;;16.79;100.00;99003.53;5252604;28;20040;-71
2023/09/22 01:34:58;;;;;;;1.20;0.80;;;;;;;16.81;100.00;99017.41;5256115;28;20404;-72
2023/09/22 01:37:32;;;;;;;3.13;0.82;;;;;;;16.72;100.00;99017.38;5249643;28;20247;-72
2023/09/22 01:40:03;;;;;;;2.90;0.45;;;;;;;16.74;100.00;99016.25;5249524;28;20024;-72
2023/09/22 01:42:34;;;;;;;1.33;0.63;;;;;;;16.69;100.00;99020.28;5256760;28;20030;-72
2023/09/22 01:45:05;;;;;;;1.15;0.70;;;;;;;16.70;100.00;99033.31;5251600;28;20024;-72
2023/09/22 01:47:36;;;;;;;3.80;0.82;;;;;;;16.59;100.00;99041.28;5251787;28;20472;-70
2023/09/22 01:50:08;;;;;;;1.02;0.52;;;;;;;16.69;100.00;99036.91;5255837;28;20027;-72
2023/09/22 01:52:38;;;;;;;2.22;0.57;;;;;;;16.70;100.00;99041.22;5254468;28;20393;-71
2023/09/22 01:55:09;;;;;;;1.05;0.60;;;;;;;16.56;100.00;99041.56;5255373;28;20028;-72
2023/09/22 01:57:39;;;;;;;2.28;0.70;;;;;;;16.64;100.00;99023.28;5252565;28;20039;-72
2023/09/22 02:00:10;;;;;;;1.55;0.55;;;;;;;16.55;100.00;99031.97;5254296;28;20036;-72
2023/09/22 02:02:42;;;;;;;0.93;0.60;;;;;;;16.66;100.00;99036.34;5254149;28;20039;-72
2023/09/22 02:05:16;;;;;;;1.45;0.80;;;;;;;16.58;100.00;99038.78;5255470;28;20266;-72
2023/09/22 02:07:46;;;;;;;1.33;0.68;;;;;;;16.54;100.00;99040.84;5253221;28;20151;-72
2023/09/22 02:10:18;;;;;;;1.42;0.82;;;;;;;16.48;100.00;99051.06;5252276;28;20094;-72
2023/09/22 02:12:48;;;;;;;2.30;0.90;;;;;;;16.35;100.00;99056.53;5253862;28;20036;-72
2023/09/22 02:15:18;;;;;;;1.20;0.63;;;;;;;16.31;100.00;99052.47;5249197;28;20500;-72
2023/09/22 02:17:49;;;;;;;1.13;0.70;;;;;;;16.30;100.00;99055.22;5254630;28;20032;-72
2023/09/22 02:20:22;;;;;;;2.72;0.93;;;;;;;16.29;100.00;99053.53;5251669;28;20032;-72
2023/09/22 02:22:55;;;;;;;2.05;0.75;;;;;;;16.27;100.00;99060.75;5251099;28;20254;-74
2023/09/22 02:25:26;;;;;;;2.33;0.90;;;;;;;16.28;100.00;99065.91;5254658;28;20060;-72
2023/09/22 02:27:57;;;;;;;3.53;1.02;;;;;;;16.17;100.00;99071.22;5253954;28;20066;-74
2023/09/22 02:30:27;;;;;;;3.10;0.73;;;;;;;16.20;100.00;99072.78;5251007;28;20077;-74
2023/09/22 02:32:57;;;;;;;1.92;0.95;;;;;;;16.21;100.00;99075.25;5254139;28;20339;-74
2023/09/22 02:35:28;;;;;;;2.05;0.90;;;;;;;16.07;100.00;99080.81;5254386;28;20036;-74
2023/09/22 02:37:58;;;;;;;2.85;1.10;;;;;;;16.18;100.00;99079.97;5253168;28;20400;-74
2023/09/22 02:40:28;;;;;;;1.98;1.20;;;;;;;16.22;100.00;99079.56;5252970;28;20037;-73
2023/09/22 02:42:59;;;;;;;3.90;1.20;;;;;;;16.16;100.00;99095.03;5255377;28;20039;-74
2023/09/22 02:45:29;;;;;;;4.32;1.33;;;;;;;16.19;100.00;99085.09;5255307;28;20484;-74
2023/09/22 02:47:59;;;;;;;2.90;1.15;;;;;;;16.20;100.00;99088.59;5252143;28;20027;-74
2023/09/22 02:50:30;;;;;;;4.85;0.93;;;;;;;16.16;100.00;99082.72;5249844;28;20024;-74
2023/09/22 02:53:03;;;;;;;2.03;0.80;;;;;;;16.06;100.00;99084.41;5254266;28;20043;-74
2023/09/22 02:55:40;;;;;;;2.17;0.70;;;;;;;15.99;100.00;99083.25;5253895;28;20114;-74
2023/09/22 02:58:12;;;;;;;2.80;1.00;;;;;;;16.00;100.00;99087.56;5248891;28;20042;-73
2023/09/22 03:00:45;;;;;;;2.42;0.70;;;;;;;15.99;100.00;99082.41;5255318;28;20472;-72
2023/09/22 03:03:16;;;;;;;2.28;0.80;;;;;;;15.97;100.00;99089.59;5249948;28;20032;-72
2023/09/22 03:05:46;;;;;;;2.92;0.80;;;;;;;15.91;100.00;99077.75;5251075;28;20384;-72
2023/09/22 03:08:16;;;;;;;2.70;0.70;;;;;;;15.94;100.00;99077.53;5255144;28;20473;-72
2023/09/22 03:10:47;;;;;;;4.35;0.80;;;;;;;15.88;100.00;99066.66;5249980;28;20046;-72
2023/09/22 03:13:17;;;;;;;2.05;0.70;;;;;;;15.94;100.00;99074.88;5255492;28;20035;-72
2023/09/22 03:15:47;;;;;;;0.90;0.60;;;;;;;15.99;100.00;99064.81;5254383;28;20497;-72
2023/09/22 03:18:19;;;;;;;4.32;0.82;;;;;;;15.89;100.00;99063.88;5253870;28;20024;-72
2023/09/22 03:20:49;;;;;;;2.25;0.60;;;;;;;15.99;100.00;99066.59;5247566;28;20125;-72
2023/09/22 03:23:20;;;;;;;2.40;1.00;;;;;;;15.94;100.00;99067.00;5248644;28;20025;-73
2023/09/22 03:25:50;;;;;;;1.92;0.80;;;;;;;15.95;100.00;99066.03;5254899;28;20035;-73
2023/09/22 03:28:20;;;;;;;2.95;1.20;;;;;;;15.99;100.00;99063.94;5250747;28;20039;-72
2023/09/22 03:30:51;;;;;;;6.00;1.73;;;;;;;15.97;100.00;99074.63;5251805;28;20972;-73
2023/09/22 03:33:22;;;;;;;4.10;1.55;;;;;;;16.00;100.00;99066.47;5250193;28;20035;-72
2023/09/22 03:35:52;;;;;;;4.07;1.60;;;;;;;16.05;100.00;99052.94;5247650;28;20027;-72
2023/09/22 03:38:22;;;;;;;5.72;1.80;;;;;;;16.03;100.00;99055.69;5249069;28;20025;-73
2023/09/22 03:40:54;;;;;;;5.70;1.63;;;;;;;16.13;100.00;99061.03;5251951;28;20089;-72
2023/09/22 03:43:24;;;;;;;3.08;1.40;;;;;;;16.18;100.00;99072.06;5248005;28;20649;-72
2023/09/22 03:45:55;;;;;;;4.68;1.60;;;;;;;16.05;100.00;99058.22;5250571;28;20024;-72
2023/09/22 03:48:26;;;;;;;4.35;1.58;;;;;;;16.13;100.00;99061.88;5254270;28;20412;-72
2023/09/22 03:50:56;;;;;;;3.65;1.50;;;;;;;16.12;100.00;99065.50;5255066;28;20035;-72
2023/09/22 03:53:27;;;;;;;4.75;1.85;;;;;;;16.10;100.00;99067.41;5256515;28;20031;-72
2023/09/22 03:55:57;;;;;;;4.45;1.52;;;;;;;16.10;100.00;99062.16;5246916;28;20032;-72
2023/09/22 03:58:27;;;;;;;2.58;1.10;;;;;;;16.08;100.00;99064.03;5252421;28;20040;-73
2023/09/22 04:01:05;;;;;;;3.58;1.00;;;;;;;16.02;100.00;99069.81;5250080;28;20159;-73
2023/09/22 04:03:36;;;;;;;2.15;0.95;;;;;;;16.05;100.00;99068.75;5248778;28;20067;-73
2023/09/22 04:06:06;;;;;;;2.40;1.10;;;;;;;16.11;100.00;99066.44;5249701;28;20107;-72
2023/09/22 04:08:37;;;;;;;2.08;0.95;;;;;;;16.09;100.00;99055.19;5251523;28;20496;-72
2023/09/22 04:11:07;;;;;;;2.38;0.55;;;;;;;16.00;100.00;99055.94;5253719;28;20027;-73
2023/09/22 04:13:37;;;;;;;6.10;1.42;;;;;;;16.00;100.00;99066.47;5259009;28;20499;-72
2023/09/22 04:16:08;;;;;;;1.55;0.65;;;;;;;15.98;100.00;99057.88;5254839;28;20071;-72
2023/09/22 04:18:38;;;;;;;1.23;0.60;;;;;;;15.91;100.00;99058.47;5254866;28;20028;-73
2023/09/22 04:21:09;;;;;;;2.22;0.80;;;;;;;15.97;100.00;99050.91;5254361;28;20613;-72
2023/09/22 04:23:45;;;;;;;2.70;0.73;;;;;;;15.90;100.00;99043.63;5259177;28;20106;-72
2023/09/22 04:26:16;;;;;;;1.55;0.68;;;;;;;15.91;100.00;99064.56;5254010;28;20028;-73
2023/09/22 04:28:47;;;;;;;1.67;0.82;;;;;;;15.83;100.00;99072.28;5258068;28;20141;-72
2023/09/22 04:31:17;;;;;;;1.27;0.77;;;;;;;15.86;100.00;99072.03;5255735;28;20540;-72
2023/09/22 04:33:47;;;;;;;1.23;0.50;;;;;;;15.75;100.00;99090.50;5256750;28;20380;-73
2023/09/22 04:36:19;;;;;;;1.90;0.60;;;;;;;15.71;100.00;99096.97;5253833;28;20031;-72
2023/09/22 04:38:51;;;;;;;1.23;0.57;;;;;;;15.71;100.00;99096.97;5254435;28;20028;-72
2023/09/22 04:41:21;;;;;;;2.45;0.68;;;;;;;15.75;100.00;99092.28;5258548;28;20016;-72
2023/09/22 04:43:54;;;;;;;2.70;0.60;;;;;;;15.78;100.00;99106.06;5252956;28;20545;-71
2023/09/22 04:46:24;;;;;;;2.70;0.90;;;;;;;15.75;100.00;99095.78;5251119;28;20297;-72
2023/09/22 04:48:55;;;;;;;2.03;0.75;;;;;;;15.67;100.00;99090.28;5255896;28;20028;-72
2023/09/22 04:51:29;;;;;;;5.45;0.52;;;;;;;15.72;100.00;99092.53;5247910;28;20107;-74
2023/09/22 04:53:59;;;;;;;2.85;0.63;;;;;;;15.63;100.00;99088.84;5247024;28;20032;-73
2023/09/22 04:56:32;;;;;;;3.30;0.77;;;;;;;15.67;100.00;99089.44;5250532;28;20035;-74
2023/09/22 04:59:03;;;;;;;3.70;0.70;;;;;;;15.74;100.00;99104.63;5252260;28;20115;-74
2023/09/22 05:01:34;;;;;;;2.55;0.60;;;;;;;15.68;100.00;99113.00;5249313;28;20281;-74
2023/09/22 05:04:04;;;;;;;2.35;0.70;;;;;;;15.66;100.00;99120.19;5254117;28;20040;-75
2023/09/22 05:06:34;;;;;;;2.55;0.80;;;;;;;15.68;100.00;99128.81;5253856;28;20027;-74
2023/09/22 05:09:07;;;;;;;4.30;0.70;;;;;;;15.61;100.00;99122.38;5247692;28;20025;-74
2023/09/22 05:11:38;;;;;;;3.08;0.70;;;;;;;15.62;100.00;99139.00;5248366;28;20075;-74
2023/09/22 05:14:08;;;;;;;1.52;0.82;;;;;;;15.57;100.00;99126.19;5226201;28;20020;-74
2023/09/22 05:16:38;;;;;;;2.60;0.55;;;;;;;15.60;100.00;99120.69;5250013;28;20036;-74
2023/09/22 05:19:10;;;;;;;1.35;0.57;;;;;;;15.64;100.00;99124.75;5235004;28;20024;-74
2023/09/22 05:21:40;;;;;;;1.58;0.57;;;;;;;15.68;100.00;99123.56;5250465;28;20046;-73
2023/09/22 05:24:11;;;;;;;9.27;0.95;;;;;;;15.70;100.00;99145.34;5247527;28;20020;-74
2023/09/22 05:26:42;;;;;;;1.83;0.60;;;;;;;15.65;100.00;99125.59;5250897;28;20038;-74
2023/09/22 05:29:12;;;;;;;1.50;0.70;;;;;;;15.77;100.00;99135.16;5249205;28;20119;-73
2023/09/22 05:31:42;;;;;;;3.20;0.70;;;;;;;15.72;100.00;99143.41;5253872;28;20031;-72
2023/09/22 05:34:13;;;;;;;1.35;0.70;;;;;;;15.76;100.00;99157.19;5247087;28;20730;-74
2023/09/22 05:36:43;;;;;;;2.15;0.57;;;;;;;15.67;100.00;99153.47;5251715;28;20598;-74
2023/09/22 05:39:15;;;;;;;2.53;0.70;;;;;;;15.75;100.00;99130.03;5245695;28;20028;-73
2023/09/22 05:41:49;;;;;;;5.47;0.70;;;;;;;15.74;100.00;99122.22;5248584;28;20417;-73
2023/09/22 05:44:19;;;;;;;15.18;1.13;;;;;;;15.70;100.00;99153.22;5252300;28;20273;-73
2023/09/22 05:46:51;;;;;;;2.55;0.60;;;;;;;15.74;100.00;99170.47;5248188;28;20108;-74
2023/09/22 05:49:21;;;;;;;1.70;0.55;;;;;;;15.73;100.00;99184.59;5248117;28;20120;-73
2023/09/22 05:51:52;;;;;;;2.63;0.50;;;;;;;15.66;100.00;99183.41;5251569;28;20548;-74
2023/09/22 05:54:23;;;;;;;2.08;0.52;;;;;;;15.56;100.00;99198.25;5251878;28;20108;-72
2023/09/22 05:56:53;;;;;;;1.70;0.60;;;;;;;15.50;100.00;99217.16;5253274;28;20111;-72
2023/09/22 05:59:27;;;;;;;3.90;0.70;;;;;;;15.31;100.00;99230.06;5250196;28;20089;-72
2023/09/22 06:02:00;;;;;;;1.17;0.50;;;;;;;15.38;100.00;99233.91;5250431;28;20061;-73
2023/09/22 06:04:32;;;;;;;2.22;0.82;;;;;;;15.44;100.00;99240.50;5247847;28;20030;-73
2023/09/22 06:07:02;;;;;;;7.45;0.98;;;;;;;15.39;100.00;99232.94;5252601;28;20031;-73
2023/09/22 06:09:33;;;;;;;1.77;0.50;;;;;;;15.45;100.00;99244.81;5253074;28;20031;-72
2023/09/22 06:12:03;;;;;;;2.70;0.60;;;;;;;15.38;100.00;99254.94;5249797;28;20024;-72
2023/09/22 06:14:34;;;;;;;2.90;0.70;;;;;;;15.40;100.00;99260.94;5253640;28;20028;-72
2023/09/22 06:17:05;;;;;;;0.82;0.57;;;;;;;15.53;100.00;99266.13;5249436;28;20028;-73
2023/09/22 06:19:35;;;;;;;4.43;0.90;;;;;;;15.47;100.00;99259.53;5254108;28;20426;-72
2023/09/22 06:22:06;;;;;;;1.52;0.70;;;;;;;15.56;100.00;99255.38;5250878;28;20040;-73
2023/09/22 06:24:36;;;;;;;1.25;0.60;;;;;;;15.49;100.00;99252.34;5251536;28;20041;-73
2023/09/22 06:27:07;;;;;;;2.80;0.73;;;;;;;15.61;100.00;99248.78;5251965;28;20055;-72
2023/09/22 06:29:38;;;;;;;1.02;0.50;;;;;;;15.78;100.00;99250.09;5253089;28;20116;-73
2023/09/22 06:32:08;;;;;;;2.65;0.77;;;;;;;15.74;100.00;99249.50;5250779;28;20499;-72
2023/09/22 06:34:39;;;;;;;3.03;0.52;;;;;;;15.76;100.00;99247.59;5250802;28;20114;-72
2023/09/22 06:37:09;;;;;;;0.95;0.60;;;;;;;15.68;100.00;99249.16;5250947;28;20024;-72
2023/09/22 06:39:39;;;;;;;1.55;0.85;;;;;;;15.79;100.00;99238.59;5250187;28;20493;-72
2023/09/22 06:42:10;;;;;;;21.95;8.45;;;;;;;15.88;100.00;99236.09;5249481;28;20024;-72
2023/09/22 06:47:15;;;;;;;20.08;7.07;;;;;;;15.89;100.00;99247.50;5201401;28;20136;-72
2023/09/22 06:49:45;;;;;;;12.02;3.58;;;;;;;16.01;100.00;99263.16;5205177;28;20111;-72
2023/09/22 06:52:16;;;;;;;5.68;1.50;;;;;;;16.05;100.00;99261.97;5205567;28;20496;-72
2023/09/22 06:54:46;;;;;;;2.33;0.60;;;;;;;16.10;100.00;99277.41;5206832;28;20490;-72
2023/09/22 06:57:16;;;;;;;2.15;0.93;;;;;;;16.15;100.00;99280.53;5203032;28;20120;-72
2023/09/22 06:59:50;;;;;;;1.50;0.70;;;;;;;16.14;100.00;99281.47;5204847;28;20028;-72
2023/09/22 07:02:21;;;;;;;1.38;0.70;;;;;;;16.19;100.00;99272.25;5203015;28;20449;-72
2023/09/22 07:04:52;;;;;;;2.38;0.60;;;;;;;16.17;100.00;99287.38;5204397;28;20048;-72
2023/09/22 07:07:22;;;;;;;4.35;1.85;;;;;;;16.07;100.00;99267.94;5205503;28;20029;-72
2023/09/22 07:09:53;;;;;;;8.93;3.00;;;;;;;16.21;100.00;99265.06;5205233;28;20032;-72
2023/09/22 07:12:23;;;;;;;7.55;3.65;;;;;;;16.19;100.00;99259.09;5205368;28;20483;-71
2023/09/22 07:14:54;;;;;;;6.32;3.72;;;;;;;16.31;100.00;99263.38;5204770;28;20021;-71
2023/09/22 07:17:25;;;;;;;11.55;5.55;;;;;;;16.23;100.00;99260.50;5200381;28;20029;-71
2023/09/22 07:19:55;;;;;;;7.93;3.72;;;;;;;16.33;100.00;99257.97;5206779;28;20025;-71
2023/09/22 07:22:25;;;;;;;8.10;2.40;;;;;;;16.24;100.00;99254.28;5203980;28;20061;-71
2023/09/22 07:24:56;;;;;;;2.35;1.00;;;;;;;16.36;100.00;99270.97;5205941;28;20071;-71
2023/09/22 07:27:26;;;;;;;3.78;1.40;;;;;;;16.26;100.00;99268.19;5203933;28;20063;-71
2023/09/22 07:29:57;;;;;;;2.63;0.90;;;;;;;16.36;100.00;99284.97;5206388;28;20103;-71
2023/09/22 07:32:27;;;;;;;3.70;0.80;;;;;;;16.47;100.00;99292.88;5205006;28;20519;-71
2023/09/22 07:34:58;;;;;;;1.70;0.80;;;;;;;16.62;100.00;99296.94;5201556;28;20461;-72
2023/09/22 07:37:30;;;;;;;2.13;0.70;;;;;;;16.59;100.00;99307.72;5208338;28;20029;-72
2023/09/22 07:40:01;;;;;;;1.88;0.82;;;;;;;16.59;100.00;99315.63;5206174;28;20120;-72
2023/09/22 07:42:31;;;;;;;4.38;1.13;;;;;;;16.68;100.00;99309.63;5207729;28;20036;-72
2023/09/22 07:45:02;;;;;;;3.05;1.30;;;;;;;16.49;100.00;99322.63;5207739;28;20037;-72
2023/09/22 07:47:34;;;;;;;3.92;1.17;;;;;;;16.60;100.00;99327.88;5207034;28;20188;-72
2023/09/22 07:50:06;;;;;;;5.38;1.30;;;;;;;16.50;100.00;99308.47;5208872;28;20479;-72
2023/09/22 07:52:36;;;;;;;3.05;1.08;;;;;;;16.46;100.00;99307.03;5206708;28;20021;-72
2023/09/22 07:55:07;;;;;;;4.30;1.20;;;;;;;16.60;100.00;99309.41;5209819;28;20079;-72
2023/09/22 07:57:37;;;;;;;3.03;1.00;;;;;;;16.69;100.00;99295.47;5207940;28;20057;-72
2023/09/22 08:00:14;;;;;;;3.58;1.40;;;;;;;16.77;100.00;99300.97;5208236;28;20052;-72
2023/09/22 08:02:45;;;;;;;3.60;0.70;;;;;;;16.68;100.00;99308.78;5209840;28;20044;-72
2023/09/22 08:05:16;;;;;;;1.88;0.60;;;;;;;16.85;100.00;99309.09;5204897;28;20025;-72
2023/09/22 08:07:49;;;;;;;2.47;0.77;;;;;;;16.97;100.00;99311.56;5209034;28;20036;-72
2023/09/22 08:10:22;;;;;;;0.95;0.60;;;;;;;16.84;100.00;99325.91;5206180;28;20033;-72
2023/09/22 08:12:53;;;;;;;3.05;0.55;;;;;;;16.90;100.00;99338.59;5208407;28;20094;-72
2023/09/22 08:15:23;;;;;;;1.92;0.70;;;;;;;16.80;100.00;99342.94;5206743;28;20454;-72
2023/09/22 08:17:56;;;;;;;1.05;0.60;;;;;;;16.83;100.00;99343.53;5203780;28;20025;-72
2023/09/22 08:20:26;;;;;;;1.05;0.65;;;;;;;16.82;100.00;99352.41;5203009;28;20040;-72
2023/09/22 08:22:57;;;;;;;1.05;0.60;;;;;;;16.65;100.00;99354.72;5207233;28;20025;-72
2023/09/22 08:25:27;;;;;;;3.33;0.60;;;;;;;16.77;100.00;99351.13;5205577;28;20010;-72
2023/09/22 08:27:58;;;;;;;1.23;0.60;;;;;;;16.89;100.00;99358.03;5206254;28;20041;-71
2023/09/22 08:30:28;;;;;;;1.77;0.60;;;;;;;16.98;100.00;99358.13;5202492;28;20104;-72
2023/09/22 08:32:59;;;;;;;0.85;0.50;;;;;;;17.05;100.00;99366.41;5207946;28;20099;-72
2023/09/22 08:35:29;;;;;;;0.82;0.45;;;;;;;17.29;100.00;99367.88;5205809;28;20037;-72
2023/09/22 08:38:02;;;;;;;2.97;0.75;;;;;;;17.24;100.00;99361.28;5209629;28;20025;-72
2023/09/22 08:40:33;;;;;;;4.50;0.70;;;;;;;17.31;100.00;99349.28;5206014;28;21210;-72
2023/09/22 08:43:03;;;;;;;0.95;0.50;;;;;;;17.33;100.00;99363.19;5208746;28;20033;-72
2023/09/22 08:45:35;;;;;;;2.35;0.50;;;;;;;17.29;100.00;99374.97;5205587;28;20426;-72
2023/09/22 08:48:07;;;;;;;0.80;0.47;;;;;;;17.19;100.00;99366.97;5208095;28;20508;-72
2023/09/22 08:50:38;;;;;;;1.92;0.60;;;;;;;17.33;100.00;99373.75;5206653;28;20029;-72
2023/09/22 08:53:10;;;;;;;2.60;0.80;;;;;;;17.39;100.00;99386.47;5207381;28;20268;-72
2023/09/22 08:55:40;;;;;;;1.23;0.45;;;;;;;17.28;100.00;99389.16;5206560;28;20037;-72
2023/09/22 08:58:11;;;;;;;2.35;0.38;;;;;;;17.18;100.00;99390.84;5208778;28;20021;-73
2023/09/22 09:00:41;;;;;;;3.47;0.57;;;;;;;17.30;100.00;99392.50;5208581;28;20468;-72
2023/09/22 09:03:12;;;;;;;0.82;0.40;;;;;;;17.36;100.00;99390.22;5205493;28;20034;-72
2023/09/22 09:05:43;;;;;;;0.98;0.50;;;;;;;17.42;100.00;99386.22;5208346;28;20028;-72
2023/09/22 09:08:16;;;;;;;0.77;0.30;;;;;;;17.52;100.00;99384.50;5208222;28;20025;-72
2023/09/22 09:10:48;;;;;;;1.27;0.40;;;;;;;17.69;100.00;99382.13;5207812;28;20025;-72
2023/09/22 09:13:23;;;;;;;1.30;0.63;;;;;;;18.08;100.00;99384.09;5208315;28;20029;-72
2023/09/22 09:15:57;;;;;;;1.13;0.50;;;;;;;18.27;100.00;99386.88;5206543;28;20036;-72
2023/09/22 09:18:29;;;;;;;1.55;0.60;;;;;;;18.76;100.00;99387.75;5204880;28;20029;-72
2023/09/22 09:21:11;;;;;;;1.77;0.60;;;;;;;18.91;96.49;99394.34;5206784;28;20040;-72
2023/09/22 09:23:53;;;;;;;1.48;0.40;;;;;;;18.60;97.82;99398.97;5206722;28;20025;-72
2023/09/22 09:26:31;;;;;;;5.75;0.70;;;;;;;18.48;98.60;99392.13;5207189;28;20080;-72
2023/09/22 09:29:02;;;;;;;4.22;0.70;;;;;;;18.30;98.51;99380.44;5210288;28;20020;-72
2023/09/22 09:31:47;;;;;;;1.70;0.65;;;;;;;18.11;99.70;99375.88;5207647;28;20072;-72
2023/09/22 09:34:18;;;;;;;4.60;0.60;;;;;;;17.92;100.00;99381.06;5208008;28;20048;-72
2023/09/22 09:37:09;;;;;;;1.77;0.60;;;;;;;18.07;100.00;99386.84;5208960;28;20120;-72
2023/09/22 09:39:50;;;;;;;3.63;0.75;;;;;;;18.16;98.94;99378.16;5207267;28;20567;-72
2023/09/22 09:42:23;;;;;;;3.20;0.50;;;;;;;18.35;99.09;99383.56;5206351;28;20017;-71
2023/09/22 09:45:01;;;;;;;1.98;0.88;;;;;;;18.47;98.91;99395.72;5208159;28;20035;-72
2023/09/22 09:47:35;;;;;;;2.35;0.60;;;;;;;18.20;98.02;99387.47;5208479;28;20475;-71
2023/09/22 09:50:08;;;;;;;1.98;0.60;;;;;;;18.06;97.79;99383.38;5207066;28;20021;-72
2023/09/22 09:53:06;;;;;;;3.72;0.73;;;;;;;17.99;96.92;99384.03;5206400;28;20132;-72
2023/09/22 09:55:36;;;;;;;3.38;0.68;;;;;;;18.34;98.08;99395.13;5206471;28;20028;-72
2023/09/22 09:58:11;;;;;;;1.83;0.70;;;;;;;18.71;98.25;99380.38;5204029;28;20091;-72
2023/09/22 10:00:42;;;;;;;2.58;0.60;;;;;;;19.04;97.43;99381.72;5208192;28;20522;-72
2023/09/22 10:03:13;;;;;;;1.75;0.60;;;;;;;19.37;93.61;99378.72;5203988;28;20029;-72
2023/09/22 10:05:44;;;;;;;3.13;0.60;;;;;;;19.60;94.00;99380.13;5206757;28;20029;-72
2023/09/22 10:08:14;;;;;;;1.17;0.40;;;;;;;19.47;93.00;99374.25;5205197;28;20055;-72
2023/09/22 10:10:48;;;;;;;2.20;0.68;;;;;;;19.43;90.86;99372.84;5203585;28;20014;-72
2023/09/22 10:13:18;;;;;;;4.07;0.80;;;;;;;18.97;91.53;99398.28;5207336;28;20540;-72
2023/09/22 10:15:59;;;;;;;1.40;0.45;;;;;;;18.76;93.73;99419.53;5203758;28;20025;-72
2023/09/22 10:18:55;;;;;;;1.52;0.60;;;;;;;18.81;93.27;99417.34;5204436;28;20022;-72
2023/09/22 10:21:29;;;;;;;2.78;0.60;;;;;;;18.45;95.08;99405.59;5203546;28;20099;-72
2023/09/22 10:24:23;;;;;;;1.27;0.57;;;;;;;18.55;94.41;99409.13;5208446;28;20056;-72
2023/09/22 10:26:53;;;;;;;2.47;0.60;;;;;;;18.75;94.38;99420.50;5206021;28;20037;-72
2023/09/22 10:29:33;;;;;;;1.20;0.60;;;;;;;18.35;93.17;99417.97;5206196;28;20083;-72
2023/09/22 10:32:16;;;;;;;3.00;0.50;;;;;;;18.94;92.71;99417.91;5204103;28;20837;-72
2023/09/22 10:35:10;;;;;;;2.75;0.52;;;;;;;18.77;93.69;99415.91;5204986;28;20034;-72
2023/09/22 10:37:58;;;;;;;2.03;0.70;;;;;;;18.75;91.23;99417.84;5205271;28;20040;-72
2023/09/22 10:40:28;;;;;;;1.60;0.60;;;;;;;18.93;93.05;99407.47;5202341;28;20108;-71
2023/09/22 10:43:02;;;;;;;1.50;0.50;;;;;;;19.41;91.96;99395.19;5207052;28;20094;-72
2023/09/22 10:45:33;;;;;;;2.78;0.82;;;;;;;19.64;90.71;99392.09;5204178;28;20119;-71
2023/09/22 10:48:03;;;;;;;1.52;0.60;;;;;;;19.79;92.12;99400.50;5206742;28;20058;-72
2023/09/22 10:50:33;;;;;;;2.25;0.75;;;;;;;19.44;89.37;99422.25;5204542;28;20021;-72
2023/09/22 10:53:07;;;;;;;2.33;0.60;;;;;;;19.43;89.75;99423.22;5207814;28;20029;-72
2023/09/22 10:55:40;;;;;;;1.02;0.45;;;;;;;19.02;90.04;99426.03;5205838;28;20444;-72
2023/09/22 10:58:16;;;;;;;2.03;0.80;;;;;;;18.87;92.11;99432.69;5211710;28;20020;-72
2023/09/22 11:00:58;;;;;;;1.90;0.50;;;;;;;18.73;89.77;99430.38;5203993;28;20021;-72
2023/09/22 11:03:28;;;;;;;2.13;0.60;;;;;;;18.91;92.65;99410.25;5204288;28;20060;-72
2023/09/22 11:05:58;;;;;;;4.50;0.60;;;;;;;18.65;91.36;99415.31;5207424;28;20025;-71
2023/09/22 11:08:29;;;;;;;1.80;0.60;;;;;;;18.85;91.86;99402.84;5204680;28;20025;-71
2023/09/22 11:11:00;;;;;;;4.30;0.80;;;;;;;19.08;91.24;99406.94;5200453;28;20025;-72
2023/09/22 11:13:30;;;;;;;1.70;0.60;;;;;;;19.41;89.53;99409.25;5205165;28;20052;-72
2023/09/22 11:16:02;;;;;;;1.85;0.63;;;;;;;19.45;89.00;99417.78;5206694;28;20024;-72
2023/09/22 11:18:33;;;;;;;2.05;0.70;;;;;;;19.35;88.36;99432.81;5204920;28;20079;-72
2023/09/22 11:21:08;;;;;;;1.83;0.60;;;;;;;19.57;88.07;99429.91;5205688;28;20037;-72
2023/09/22 11:23:40;;;;;;;1.85;0.50;;;;;;;19.90;88.89;99434.78;5203962;28;20025;-72
2023/09/22 11:26:13;;;;;;;1.08;0.57;;;;;;;19.81;88.29;99449.75;5206479;28;20025;-73
2023/09/22 11:28:45;;;;;;;2.63;0.45;;;;;;;19.88;87.58;99444.72;5206741;28;20031;-73
2023/09/22 11:31:19;;;;;;;1.75;0.57;;;;;;;19.92;87.92;99431.03;5203006;28;20382;-72
2023/09/22 11:34:02;;;;;;;3.22;0.70;;;;;;;19.77;85.71;99443.03;5206711;28;20064;-72
2023/09/22 11:36:52;;;;;;;1.67;0.70;;;;;;;19.53;87.73;99441.78;5204742;28;20059;-72
2023/09/22 11:39:30;;;;;;;1.20;0.55;;;;;;;19.52;87.48;99437.44;5203018;28;20552;-72
2023/09/22 11:42:04;;;;;;;0.80;0.40;;;;;;;19.63;85.87;99426.72;5206188;28;20107;-72
2023/09/22 11:44:34;;;;;;;2.22;0.50;;;;;;;19.55;87.43;99445.13;5206976;28;20037;-72
2023/09/22 11:47:05;;;;;;;1.42;0.70;;;;;;;19.53;87.33;99452.38;5206103;28;20032;-72
2023/09/22 11:49:38;;;;;;;0.77;0.43;;;;;;;19.60;85.87;99454.34;5204754;28;20029;-72
2023/09/22 11:52:09;;;;;;;1.23;0.50;;;;;;;19.40;88.31;99459.75;5205219;28;20506;-72
2023/09/22 11:54:39;;;;;;;1.75;0.60;;;;;;;19.48;87.42;99458.09;5201865;28;20100;-72